sensor_id;sensor_type;location;lat;lon;timestamp;P1;durP1;ratioP1;P2;durP2;ratioP2
50773;SDS011;36745;48.544;8.918;2022-11-15T00:02:46;27.15;;;17.95;;
50773;SDS011;36745;48.544;8.918;2022-11-15T00:06:08;31.35;;;20.20;;
50773;SDS011;36745;48.544;8.918;2022-11-15T00:09:29;27.52;;;17.67;;
50773;SDS011;36745;48.544;8.918;2022-11-15T00:12:50;32.55;;;19.60;;
50773;SDS011;36745;48.544;8.918;2022-11-15T00:16:12;20.38;;;14.35;;
50773;SDS011;36745;48.544;8.918;2022-11-15T00:19:33;19.92;;;14.60;;
50773;SDS011;36745;48.544;8.918;2022-11-15T00:22:54;21.42;;;13.75;;
50773;SDS011;36745;48.544;8.918;2022-11-15T00:26:15;21.88;;;14.55;;
50773;SDS011;36745;48.544;8.918;2022-11-15T00:29:37;21.02;;;15.10;;
50773;SDS011;36745;48.544;8.918;2022-11-15T00:33:02;24.25;;;16.38;;
50773;SDS011;36745;48.544;8.918;2022-11-15T00:36:25;21.95;;;15.57;;
50773;SDS011;36745;48.544;8.918;2022-11-15T00:39:46;29.80;;;19.55;;
50773;SDS011;36745;48.544;8.918;2022-11-15T00:43:07;27.77;;;18.10;;
50773;SDS011;36745;48.544;8.918;2022-11-15T00:46:28;26.20;;;17.15;;
50773;SDS011;36745;48.544;8.918;2022-11-15T00:49:50;28.60;;;18.45;;
50773;SDS011;36745;48.544;8.918;2022-11-15T00:53:11;21.40;;;14.45;;
50773;SDS011;36745;48.544;8.918;2022-11-15T00:56:32;27.13;;;17.48;;
50773;SDS011;36745;48.544;8.918;2022-11-15T00:59:53;27.42;;;16.67;;
50773;SDS011;36745;48.544;8.918;2022-11-15T01:03:15;33.20;;;19.70;;
50773;SDS011;36745;48.544;8.918;2022-11-15T01:06:36;30.55;;;16.92;;
50773;SDS011;36745;48.544;8.918;2022-11-15T01:09:57;28.58;;;16.33;;
50773;SDS011;36745;48.544;8.918;2022-11-15T01:13:18;23.40;;;15.52;;
50773;SDS011;36745;48.544;8.918;2022-11-15T01:16:40;24.25;;;15.25;;
50773;SDS011;36745;48.544;8.918;2022-11-15T01:20:01;22.10;;;15.88;;
50773;SDS011;36745;48.544;8.918;2022-11-15T01:23:22;20.98;;;14.52;;
50773;SDS011;36745;48.544;8.918;2022-11-15T01:26:44;20.80;;;14.23;;
50773;SDS011;36745;48.544;8.918;2022-11-15T01:30:05;16.83;;;13.02;;
50773;SDS011;36745;48.544;8.918;2022-11-15T01:33:27;20.30;;;13.85;;
50773;SDS011;36745;48.544;8.918;2022-11-15T01:36:49;23.45;;;14.30;;
50773;SDS011;36745;48.544;8.918;2022-11-15T01:40:11;19.13;;;12.98;;
50773;SDS011;36745;48.544;8.918;2022-11-15T01:43:33;19.55;;;13.00;;
50773;SDS011;36745;48.544;8.918;2022-11-15T01:46:55;17.98;;;12.27;;
50773;SDS011;36745;48.544;8.918;2022-11-15T01:50:22;20.38;;;12.57;;
50773;SDS011;36745;48.544;8.918;2022-11-15T01:53:49;19.00;;;12.93;;
50773;SDS011;36745;48.544;8.918;2022-11-15T01:57:15;17.10;;;11.63;;
50773;SDS011;36745;48.544;8.918;2022-11-15T02:00:36;19.42;;;11.82;;
50773;SDS011;36745;48.544;8.918;2022-11-15T02:03:59;20.35;;;12.32;;
50773;SDS011;36745;48.544;8.918;2022-11-15T02:07:23;21.20;;;12.63;;
50773;SDS011;36745;48.544;8.918;2022-11-15T02:10:44;20.65;;;13.23;;
50773;SDS011;36745;48.544;8.918;2022-11-15T02:14:05;22.13;;;13.38;;
50773;SDS011;36745;48.544;8.918;2022-11-15T02:21:39;16.02;;;11.27;;
50773;SDS011;36745;48.544;8.918;2022-11-15T02:32:42;16.83;;;11.55;;
50773;SDS011;36745;48.544;8.918;2022-11-15T02:36:15;17.25;;;11.05;;
50773;SDS011;36745;48.544;8.918;2022-11-15T02:39:51;16.95;;;11.50;;
50773;SDS011;36745;48.544;8.918;2022-11-15T02:43:19;17.65;;;9.93;;
50773;SDS011;36745;48.544;8.918;2022-11-15T02:47:06;20.92;;;11.23;;
50773;SDS011;36745;48.544;8.918;2022-11-15T02:50:34;16.92;;;11.93;;
50773;SDS011;36745;48.544;8.918;2022-11-15T02:53:55;15.93;;;11.65;;
50773;SDS011;36745;48.544;8.918;2022-11-15T02:57:16;15.63;;;11.65;;
50773;SDS011;36745;48.544;8.918;2022-11-15T03:00:45;13.38;;;10.38;;
50773;SDS011;36745;48.544;8.918;2022-11-15T03:11:23;18.63;;;11.73;;
50773;SDS011;36745;48.544;8.918;2022-11-15T03:14:55;18.73;;;14.27;;
50773;SDS011;36745;48.544;8.918;2022-11-15T03:18:27;17.30;;;12.23;;
50773;SDS011;36745;48.544;8.918;2022-11-15T03:21:54;19.35;;;11.13;;
50773;SDS011;36745;48.544;8.918;2022-11-15T03:25:19;17.48;;;11.93;;
50773;SDS011;36745;48.544;8.918;2022-11-15T03:28:50;15.05;;;11.45;;
50773;SDS011;36745;48.544;8.918;2022-11-15T03:32:18;19.90;;;11.68;;
50773;SDS011;36745;48.544;8.918;2022-11-15T03:35:44;17.08;;;11.70;;
50773;SDS011;36745;48.544;8.918;2022-11-15T03:39:07;19.92;;;12.02;;
50773;SDS011;36745;48.544;8.918;2022-11-15T03:49:36;18.33;;;11.35;;
50773;SDS011;36745;48.544;8.918;2022-11-15T03:53:03;16.73;;;10.82;;
50773;SDS011;36745;48.544;8.918;2022-11-15T03:56:24;17.20;;;11.07;;
50773;SDS011;36745;48.544;8.918;2022-11-15T03:59:45;16.98;;;11.65;;
50773;SDS011;36745;48.544;8.918;2022-11-15T04:03:06;16.10;;;10.80;;
50773;SDS011;36745;48.544;8.918;2022-11-15T04:06:28;16.42;;;10.63;;
50773;SDS011;36745;48.544;8.918;2022-11-15T04:09:50;16.13;;;10.93;;
50773;SDS011;36745;48.544;8.918;2022-11-15T04:13:23;17.43;;;11.23;;
50773;SDS011;36745;48.544;8.918;2022-11-15T04:16:44;13.15;;;10.80;;
50773;SDS011;36745;48.544;8.918;2022-11-15T04:20:10;17.00;;;11.18;;
50773;SDS011;36745;48.544;8.918;2022-11-15T04:23:52;15.77;;;11.68;;
50773;SDS011;36745;48.544;8.918;2022-11-15T04:27:13;17.08;;;12.48;;
50773;SDS011;36745;48.544;8.918;2022-11-15T04:30:35;17.52;;;13.65;;
50773;SDS011;36745;48.544;8.918;2022-11-15T04:33:56;15.32;;;11.52;;
50773;SDS011;36745;48.544;8.918;2022-11-15T04:37:18;13.80;;;11.40;;
50773;SDS011;36745;48.544;8.918;2022-11-15T04:40:39;16.88;;;12.55;;
50773;SDS011;36745;48.544;8.918;2022-11-15T04:44:04;18.73;;;12.93;;
50773;SDS011;36745;48.544;8.918;2022-11-15T04:47:25;19.90;;;13.80;;
50773;SDS011;36745;48.544;8.918;2022-11-15T04:50:49;49.03;;;28.83;;
50773;SDS011;36745;48.544;8.918;2022-11-15T04:54:11;42.85;;;26.95;;
50773;SDS011;36745;48.544;8.918;2022-11-15T04:57:32;54.85;;;31.45;;
50773;SDS011;36745;48.544;8.918;2022-11-15T05:00:54;43.05;;;27.58;;
50773;SDS011;36745;48.544;8.918;2022-11-15T05:04:15;45.97;;;29.63;;
50773;SDS011;36745;48.544;8.918;2022-11-15T05:07:39;35.92;;;24.52;;
50773;SDS011;36745;48.544;8.918;2022-11-15T05:11:04;31.98;;;19.98;;
50773;SDS011;36745;48.544;8.918;2022-11-15T05:14:25;29.00;;;18.70;;
50773;SDS011;36745;48.544;8.918;2022-11-15T05:17:46;34.40;;;22.08;;
50773;SDS011;36745;48.544;8.918;2022-11-15T05:21:09;32.53;;;21.65;;
50773;SDS011;36745;48.544;8.918;2022-11-15T05:24:32;29.85;;;20.23;;
50773;SDS011;36745;48.544;8.918;2022-11-15T05:27:53;33.35;;;22.95;;
50773;SDS011;36745;48.544;8.918;2022-11-15T05:31:15;33.05;;;21.00;;
50773;SDS011;36745;48.544;8.918;2022-11-15T05:34:37;25.88;;;16.98;;
50773;SDS011;36745;48.544;8.918;2022-11-15T05:38:01;24.50;;;17.08;;
50773;SDS011;36745;48.544;8.918;2022-11-15T05:41:31;23.85;;;15.80;;
50773;SDS011;36745;48.544;8.918;2022-11-15T05:44:57;27.90;;;17.15;;
50773;SDS011;36745;48.544;8.918;2022-11-15T05:48:20;29.73;;;17.23;;
50773;SDS011;36745;48.544;8.918;2022-11-15T05:51:42;28.65;;;16.75;;
50773;SDS011;36745;48.544;8.918;2022-11-15T05:55:08;25.13;;;16.73;;
50773;SDS011;36745;48.544;8.918;2022-11-15T05:58:31;26.58;;;16.20;;
50773;SDS011;36745;48.544;8.918;2022-11-15T06:01:53;20.07;;;14.00;;
50773;SDS011;36745;48.544;8.918;2022-11-15T06:05:14;16.48;;;11.15;;
50773;SDS011;36745;48.544;8.918;2022-11-15T06:08:36;20.83;;;13.82;;
50773;SDS011;36745;48.544;8.918;2022-11-15T06:11:57;19.88;;;13.73;;
50773;SDS011;36745;48.544;8.918;2022-11-15T06:15:18;32.63;;;20.70;;
50773;SDS011;36745;48.544;8.918;2022-11-15T06:18:40;30.95;;;20.85;;
50773;SDS011;36745;48.544;8.918;2022-11-15T06:22:01;27.05;;;20.23;;
50773;SDS011;36745;48.544;8.918;2022-11-15T06:25:23;29.63;;;19.98;;
50773;SDS011;36745;48.544;8.918;2022-11-15T06:28:44;28.80;;;18.73;;
50773;SDS011;36745;48.544;8.918;2022-11-15T06:32:05;31.55;;;18.40;;
50773;SDS011;36745;48.544;8.918;2022-11-15T06:35:27;28.00;;;17.90;;
50773;SDS011;36745;48.544;8.918;2022-11-15T06:38:48;25.63;;;17.08;;
50773;SDS011;36745;48.544;8.918;2022-11-15T06:42:09;22.08;;;17.20;;
50773;SDS011;36745;48.544;8.918;2022-11-15T06:45:31;27.63;;;19.02;;
50773;SDS011;36745;48.544;8.918;2022-11-15T06:48:53;36.92;;;22.98;;
50773;SDS011;36745;48.544;8.918;2022-11-15T06:52:14;43.03;;;27.27;;
50773;SDS011;36745;48.544;8.918;2022-11-15T06:55:35;31.42;;;20.35;;
50773;SDS011;36745;48.544;8.918;2022-11-15T06:58:57;34.00;;;21.52;;
50773;SDS011;36745;48.544;8.918;2022-11-15T07:02:18;53.60;;;32.60;;
50773;SDS011;36745;48.544;8.918;2022-11-15T07:05:39;100.28;;;56.70;;
50773;SDS011;36745;48.544;8.918;2022-11-15T07:09:01;90.03;;;52.05;;
50773;SDS011;36745;48.544;8.918;2022-11-15T07:12:24;54.33;;;32.00;;
50773;SDS011;36745;48.544;8.918;2022-11-15T07:15:45;38.63;;;26.08;;
50773;SDS011;36745;48.544;8.918;2022-11-15T07:19:08;49.95;;;34.38;;
50773;SDS011;36745;48.544;8.918;2022-11-15T07:22:29;73.45;;;50.90;;
50773;SDS011;36745;48.544;8.918;2022-11-15T07:25:51;73.65;;;48.90;;
50773;SDS011;36745;48.544;8.918;2022-11-15T07:29:12;66.40;;;46.00;;
50773;SDS011;36745;48.544;8.918;2022-11-15T07:32:34;51.13;;;34.90;;
50773;SDS011;36745;48.544;8.918;2022-11-15T07:35:58;46.05;;;32.35;;
50773;SDS011;36745;48.544;8.918;2022-11-15T07:39:22;30.13;;;21.35;;
50773;SDS011;36745;48.544;8.918;2022-11-15T07:42:44;31.63;;;21.55;;
50773;SDS011;36745;48.544;8.918;2022-11-15T07:46:14;35.83;;;23.05;;
50773;SDS011;36745;48.544;8.918;2022-11-15T07:49:35;28.08;;;18.10;;
50773;SDS011;36745;48.544;8.918;2022-11-15T07:52:57;30.15;;;19.45;;
50773;SDS011;36745;48.544;8.918;2022-11-15T07:56:20;106.93;;;50.80;;
50773;SDS011;36745;48.544;8.918;2022-11-15T07:59:41;108.60;;;56.90;;
50773;SDS011;36745;48.544;8.918;2022-11-15T08:03:10;97.28;;;53.47;;
50773;SDS011;36745;48.544;8.918;2022-11-15T08:06:32;47.90;;;31.35;;
50773;SDS011;36745;48.544;8.918;2022-11-15T08:09:53;39.45;;;25.48;;
50773;SDS011;36745;48.544;8.918;2022-11-15T08:13:16;30.17;;;17.88;;
50773;SDS011;36745;48.544;8.918;2022-11-15T08:16:37;19.00;;;13.23;;
50773;SDS011;36745;48.544;8.918;2022-11-15T08:19:58;21.52;;;13.73;;
50773;SDS011;36745;48.544;8.918;2022-11-15T08:23:20;15.65;;;11.88;;
50773;SDS011;36745;48.544;8.918;2022-11-15T08:26:41;16.17;;;12.35;;
50773;SDS011;36745;48.544;8.918;2022-11-15T08:30:09;15.43;;;11.23;;
50773;SDS011;36745;48.544;8.918;2022-11-15T08:33:32;17.15;;;11.60;;
50773;SDS011;36745;48.544;8.918;2022-11-15T08:36:57;17.23;;;12.82;;
50773;SDS011;36745;48.544;8.918;2022-11-15T08:40:18;20.65;;;12.82;;
50773;SDS011;36745;48.544;8.918;2022-11-15T08:43:40;20.10;;;13.68;;
50773;SDS011;36745;48.544;8.918;2022-11-15T08:47:02;20.17;;;13.50;;
50773;SDS011;36745;48.544;8.918;2022-11-15T08:50:23;21.58;;;13.65;;
50773;SDS011;36745;48.544;8.918;2022-11-15T08:53:45;18.73;;;13.05;;
50773;SDS011;36745;48.544;8.918;2022-11-15T08:57:09;16.67;;;12.52;;
50773;SDS011;36745;48.544;8.918;2022-11-15T09:00:30;17.70;;;12.27;;
50773;SDS011;36745;48.544;8.918;2022-11-15T09:03:52;19.73;;;12.60;;
50773;SDS011;36745;48.544;8.918;2022-11-15T09:07:14;19.20;;;11.13;;
50773;SDS011;36745;48.544;8.918;2022-11-15T09:14:01;19.63;;;11.70;;
50773;SDS011;36745;48.544;8.918;2022-11-15T09:20:44;18.92;;;12.35;;
50773;SDS011;36745;48.544;8.918;2022-11-15T09:24:05;21.33;;;11.60;;
50773;SDS011;36745;48.544;8.918;2022-11-15T09:28:13;19.55;;;10.52;;
50773;SDS011;36745;48.544;8.918;2022-11-15T09:31:18;17.52;;;11.60;;
50773;SDS011;36745;48.544;8.918;2022-11-15T09:34:40;13.93;;;9.57;;
50773;SDS011;36745;48.544;8.918;2022-11-15T09:38:01;16.25;;;9.30;;
50773;SDS011;36745;48.544;8.918;2022-11-15T09:45:03;18.52;;;11.85;;
50773;SDS011;36745;48.544;8.918;2022-11-15T09:48:39;14.80;;;11.55;;
50773;SDS011;36745;48.544;8.918;2022-11-15T09:52:32;18.63;;;10.73;;
50773;SDS011;36745;48.544;8.918;2022-11-15T09:56:00;18.10;;;11.10;;
50773;SDS011;36745;48.544;8.918;2022-11-15T10:06:28;12.82;;;8.38;;
50773;SDS011;36745;48.544;8.918;2022-11-15T10:09:53;16.20;;;9.50;;
50773;SDS011;36745;48.544;8.918;2022-11-15T10:13:22;12.15;;;8.90;;
50773;SDS011;36745;48.544;8.918;2022-11-15T10:23:31;14.75;;;8.15;;
50773;SDS011;36745;48.544;8.918;2022-11-15T10:26:52;14.32;;;8.10;;
50773;SDS011;36745;48.544;8.918;2022-11-15T10:30:15;14.43;;;8.18;;
50773;SDS011;36745;48.544;8.918;2022-11-15T10:33:39;8.57;;;6.82;;
50773;SDS011;36745;48.544;8.918;2022-11-15T10:37:00;14.05;;;7.78;;
50773;SDS011;36745;48.544;8.918;2022-11-15T10:40:23;9.13;;;7.22;;
50773;SDS011;36745;48.544;8.918;2022-11-15T10:43:45;8.43;;;7.38;;
50773;SDS011;36745;48.544;8.918;2022-11-15T10:54:15;20.60;;;16.42;;
50773;SDS011;36745;48.544;8.918;2022-11-15T10:57:49;12.55;;;9.45;;
50773;SDS011;36745;48.544;8.918;2022-11-15T11:01:14;12.02;;;9.93;;
50773;SDS011;36745;48.544;8.918;2022-11-15T11:04:50;15.15;;;8.80;;
50773;SDS011;36745;48.544;8.918;2022-11-15T11:15:30;20.77;;;14.27;;
50773;SDS011;36745;48.544;8.918;2022-11-15T11:22:32;21.13;;;12.68;;
50773;SDS011;36745;48.544;8.918;2022-11-15T11:33:32;17.73;;;11.38;;
50773;SDS011;36745;48.544;8.918;2022-11-15T11:37:02;15.82;;;11.60;;
50773;SDS011;36745;48.544;8.918;2022-11-15T11:47:52;21.27;;;14.45;;
50773;SDS011;36745;48.544;8.918;2022-11-15T11:51:27;10.20;;;8.38;;
50773;SDS011;36745;48.544;8.918;2022-11-15T11:54:55;9.02;;;7.03;;
50773;SDS011;36745;48.544;8.918;2022-11-15T11:58:42;10.40;;;7.82;;
50773;SDS011;36745;48.544;8.918;2022-11-15T12:05:54;8.93;;;6.70;;
50773;SDS011;36745;48.544;8.918;2022-11-15T12:12:50;9.52;;;6.28;;
50773;SDS011;36745;48.544;8.918;2022-11-15T12:19:46;9.65;;;6.90;;
50773;SDS011;36745;48.544;8.918;2022-11-15T12:23:11;11.38;;;7.68;;
50773;SDS011;36745;48.544;8.918;2022-11-15T12:26:41;11.27;;;7.53;;
50773;SDS011;36745;48.544;8.918;2022-11-15T12:30:16;13.13;;;7.88;;
50773;SDS011;36745;48.544;8.918;2022-11-15T12:33:41;9.82;;;7.15;;
50773;SDS011;36745;48.544;8.918;2022-11-15T12:37:32;13.20;;;9.63;;
50773;SDS011;36745;48.544;8.918;2022-11-15T12:41:13;11.98;;;8.07;;
50773;SDS011;36745;48.544;8.918;2022-11-15T12:55:30;16.23;;;9.73;;
50773;SDS011;36745;48.544;8.918;2022-11-15T12:58:55;41.10;;;27.15;;
50773;SDS011;36745;48.544;8.918;2022-11-15T13:02:18;35.35;;;24.90;;
50773;SDS011;36745;48.544;8.918;2022-11-15T13:09:03;15.40;;;9.55;;
50773;SDS011;36745;48.544;8.918;2022-11-15T13:15:55;17.25;;;15.07;;
50773;SDS011;36745;48.544;8.918;2022-11-15T13:19:19;13.75;;;9.18;;
50773;SDS011;36745;48.544;8.918;2022-11-15T13:22:47;14.90;;;9.82;;
50773;SDS011;36745;48.544;8.918;2022-11-15T13:26:23;20.40;;;13.40;;
50773;SDS011;36745;48.544;8.918;2022-11-15T13:29:44;31.02;;;27.73;;
50773;SDS011;36745;48.544;8.918;2022-11-15T13:33:13;28.92;;;22.80;;
50773;SDS011;36745;48.544;8.918;2022-11-15T13:36:37;31.63;;;18.00;;
50773;SDS011;36745;48.544;8.918;2022-11-15T13:43:56;16.05;;;9.18;;
50773;SDS011;36745;48.544;8.918;2022-11-15T13:47:19;12.15;;;9.40;;
50773;SDS011;36745;48.544;8.918;2022-11-15T13:50:40;15.35;;;9.75;;
50773;SDS011;36745;48.544;8.918;2022-11-15T13:54:16;13.65;;;9.75;;
50773;SDS011;36745;48.544;8.918;2022-11-15T13:57:55;17.23;;;10.82;;
50773;SDS011;36745;48.544;8.918;2022-11-15T14:01:19;16.60;;;11.90;;
50773;SDS011;36745;48.544;8.918;2022-11-15T14:04:46;21.13;;;13.07;;
50773;SDS011;36745;48.544;8.918;2022-11-15T14:08:21;19.58;;;14.20;;
50773;SDS011;36745;48.544;8.918;2022-11-15T14:11:55;36.50;;;22.98;;
50773;SDS011;36745;48.544;8.918;2022-11-15T14:15:19;25.00;;;18.23;;
50773;SDS011;36745;48.544;8.918;2022-11-15T14:18:50;14.27;;;12.18;;
50773;SDS011;36745;48.544;8.918;2022-11-15T14:22:46;16.45;;;10.73;;
50773;SDS011;36745;48.544;8.918;2022-11-15T14:26:30;28.25;;;19.00;;
50773;SDS011;36745;48.544;8.918;2022-11-15T14:29:53;19.95;;;12.82;;
50773;SDS011;36745;48.544;8.918;2022-11-15T14:36:53;23.33;;;15.27;;
50773;SDS011;36745;48.544;8.918;2022-11-15T14:40:16;21.73;;;13.48;;
50773;SDS011;36745;48.544;8.918;2022-11-15T14:43:40;20.58;;;11.85;;
50773;SDS011;36745;48.544;8.918;2022-11-15T14:47:01;33.13;;;18.70;;
50773;SDS011;36745;48.544;8.918;2022-11-15T14:50:22;34.65;;;20.67;;
50773;SDS011;36745;48.544;8.918;2022-11-15T14:53:44;16.48;;;11.35;;
50773;SDS011;36745;48.544;8.918;2022-11-15T14:57:06;15.85;;;8.68;;
50773;SDS011;36745;48.544;8.918;2022-11-15T15:03:52;11.60;;;8.48;;
50773;SDS011;36745;48.544;8.918;2022-11-15T15:07:16;14.00;;;9.40;;
50773;SDS011;36745;48.544;8.918;2022-11-15T15:10:40;19.05;;;9.85;;
50773;SDS011;36745;48.544;8.918;2022-11-15T15:14:03;16.13;;;14.18;;
50773;SDS011;36745;48.544;8.918;2022-11-15T15:17:24;19.05;;;11.50;;
50773;SDS011;36745;48.544;8.918;2022-11-15T15:20:47;15.13;;;10.52;;
50773;SDS011;36745;48.544;8.918;2022-11-15T15:24:17;15.98;;;11.70;;
50773;SDS011;36745;48.544;8.918;2022-11-15T15:27:38;16.23;;;12.73;;
50773;SDS011;36745;48.544;8.918;2022-11-15T15:31:00;19.58;;;14.60;;
50773;SDS011;36745;48.544;8.918;2022-11-15T15:34:21;15.43;;;12.13;;
50773;SDS011;36745;48.544;8.918;2022-11-15T15:37:43;16.90;;;12.35;;
50773;SDS011;36745;48.544;8.918;2022-11-15T15:41:23;32.60;;;25.75;;
50773;SDS011;36745;48.544;8.918;2022-11-15T15:44:48;18.20;;;14.45;;
50773;SDS011;36745;48.544;8.918;2022-11-15T15:48:11;16.33;;;12.90;;
50773;SDS011;36745;48.544;8.918;2022-11-15T15:51:34;23.95;;;16.65;;
50773;SDS011;36745;48.544;8.918;2022-11-15T15:54:56;26.38;;;18.35;;
50773;SDS011;36745;48.544;8.918;2022-11-15T15:58:17;23.42;;;17.70;;
50773;SDS011;36745;48.544;8.918;2022-11-15T16:01:38;60.13;;;31.73;;
50773;SDS011;36745;48.544;8.918;2022-11-15T16:05:00;47.33;;;27.67;;
50773;SDS011;36745;48.544;8.918;2022-11-15T16:08:22;37.78;;;22.38;;
50773;SDS011;36745;48.544;8.918;2022-11-15T16:11:45;35.92;;;22.95;;
50773;SDS011;36745;48.544;8.918;2022-11-15T16:15:07;53.40;;;31.40;;
50773;SDS011;36745;48.544;8.918;2022-11-15T16:18:32;63.47;;;33.92;;
50773;SDS011;36745;48.544;8.918;2022-11-15T16:21:54;79.10;;;41.33;;
50773;SDS011;36745;48.544;8.918;2022-11-15T16:25:27;49.45;;;29.92;;
50773;SDS011;36745;48.544;8.918;2022-11-15T16:28:52;47.80;;;27.65;;
50773;SDS011;36745;48.544;8.918;2022-11-15T16:32:14;37.92;;;22.98;;
50773;SDS011;36745;48.544;8.918;2022-11-15T16:35:36;35.50;;;23.52;;
50773;SDS011;36745;48.544;8.918;2022-11-15T16:38:57;25.10;;;17.40;;
50773;SDS011;36745;48.544;8.918;2022-11-15T16:42:24;30.27;;;19.38;;
50773;SDS011;36745;48.544;8.918;2022-11-15T16:45:45;24.08;;;14.95;;
50773;SDS011;36745;48.544;8.918;2022-11-15T16:49:13;18.70;;;12.45;;
50773;SDS011;36745;48.544;8.918;2022-11-15T16:52:38;24.90;;;16.00;;
50773;SDS011;36745;48.544;8.918;2022-11-15T16:55:59;28.83;;;17.73;;
50773;SDS011;36745;48.544;8.918;2022-11-15T16:59:21;21.02;;;12.98;;
50773;SDS011;36745;48.544;8.918;2022-11-15T17:02:43;22.13;;;13.38;;
50773;SDS011;36745;48.544;8.918;2022-11-15T17:06:06;24.25;;;15.52;;
50773;SDS011;36745;48.544;8.918;2022-11-15T17:09:29;23.52;;;16.67;;
50773;SDS011;36745;48.544;8.918;2022-11-15T17:12:50;30.40;;;20.50;;
50773;SDS011;36745;48.544;8.918;2022-11-15T17:16:13;25.33;;;15.95;;
50773;SDS011;36745;48.544;8.918;2022-11-15T17:19:37;25.50;;;16.30;;
50773;SDS011;36745;48.544;8.918;2022-11-15T17:22:58;37.33;;;24.20;;
50773;SDS011;36745;48.544;8.918;2022-11-15T17:26:20;35.50;;;21.85;;
50773;SDS011;36745;48.544;8.918;2022-11-15T17:29:41;38.63;;;22.42;;
50773;SDS011;36745;48.544;8.918;2022-11-15T17:33:02;37.45;;;22.75;;
50773;SDS011;36745;48.544;8.918;2022-11-15T17:36:25;44.72;;;25.27;;
50773;SDS011;36745;48.544;8.918;2022-11-15T17:39:46;38.22;;;20.60;;
50773;SDS011;36745;48.544;8.918;2022-11-15T17:43:07;28.17;;;19.10;;
50773;SDS011;36745;48.544;8.918;2022-11-15T17:46:29;40.13;;;27.23;;
50773;SDS011;36745;48.544;8.918;2022-11-15T17:49:50;36.70;;;25.67;;
50773;SDS011;36745;48.544;8.918;2022-11-15T17:53:11;42.13;;;29.27;;
50773;SDS011;36745;48.544;8.918;2022-11-15T17:56:33;54.00;;;33.83;;
50773;SDS011;36745;48.544;8.918;2022-11-15T18:00:00;63.47;;;35.15;;
50773;SDS011;36745;48.544;8.918;2022-11-15T18:03:21;48.40;;;26.90;;
50773;SDS011;36745;48.544;8.918;2022-11-15T18:06:42;44.90;;;25.65;;
50773;SDS011;36745;48.544;8.918;2022-11-15T18:10:03;42.08;;;23.90;;
50773;SDS011;36745;48.544;8.918;2022-11-15T18:13:25;29.65;;;16.52;;
50773;SDS011;36745;48.544;8.918;2022-11-15T18:16:47;28.98;;;17.02;;
50773;SDS011;36745;48.544;8.918;2022-11-15T18:20:08;42.45;;;21.80;;
50773;SDS011;36745;48.544;8.918;2022-11-15T18:23:30;52.63;;;29.60;;
50773;SDS011;36745;48.544;8.918;2022-11-15T18:26:52;35.35;;;23.35;;
50773;SDS011;36745;48.544;8.918;2022-11-15T18:30:14;32.25;;;20.10;;
50773;SDS011;36745;48.544;8.918;2022-11-15T18:33:35;33.55;;;22.48;;
50773;SDS011;36745;48.544;8.918;2022-11-15T18:36:56;36.08;;;26.35;;
50773;SDS011;36745;48.544;8.918;2022-11-15T18:40:22;50.78;;;35.13;;
50773;SDS011;36745;48.544;8.918;2022-11-15T18:43:43;46.78;;;34.20;;
50773;SDS011;36745;48.544;8.918;2022-11-15T18:47:05;40.30;;;29.17;;
50773;SDS011;36745;48.544;8.918;2022-11-15T18:50:26;25.77;;;18.02;;
50773;SDS011;36745;48.544;8.918;2022-11-15T18:53:48;31.65;;;20.55;;
50773;SDS011;36745;48.544;8.918;2022-11-15T18:57:13;33.83;;;24.50;;
50773;SDS011;36745;48.544;8.918;2022-11-15T19:00:34;49.88;;;35.45;;
50773;SDS011;36745;48.544;8.918;2022-11-15T19:03:56;52.20;;;37.85;;
50773;SDS011;36745;48.544;8.918;2022-11-15T19:11:37;52.72;;;35.92;;
50773;SDS011;36745;48.544;8.918;2022-11-15T19:14:59;43.05;;;31.05;;
50773;SDS011;36745;48.544;8.918;2022-11-15T19:18:21;33.83;;;26.52;;
50773;SDS011;36745;48.544;8.918;2022-11-15T19:21:46;38.10;;;27.27;;
50773;SDS011;36745;48.544;8.918;2022-11-15T19:25:08;35.75;;;24.50;;
50773;SDS011;36745;48.544;8.918;2022-11-15T19:28:31;34.33;;;22.98;;
50773;SDS011;36745;48.544;8.918;2022-11-15T19:31:53;35.60;;;25.17;;
50773;SDS011;36745;48.544;8.918;2022-11-15T19:35:14;32.92;;;25.75;;
50773;SDS011;36745;48.544;8.918;2022-11-15T19:38:35;29.63;;;21.20;;
50773;SDS011;36745;48.544;8.918;2022-11-15T19:41:57;27.98;;;20.73;;
50773;SDS011;36745;48.544;8.918;2022-11-15T19:45:18;27.30;;;19.50;;
50773;SDS011;36745;48.544;8.918;2022-11-15T19:48:40;30.63;;;21.08;;
50773;SDS011;36745;48.544;8.918;2022-11-15T19:52:01;31.38;;;22.95;;
50773;SDS011;36745;48.544;8.918;2022-11-15T19:55:23;25.08;;;19.38;;
50773;SDS011;36745;48.544;8.918;2022-11-15T19:58:44;25.30;;;17.85;;
50773;SDS011;36745;48.544;8.918;2022-11-15T20:02:07;30.83;;;21.80;;
50773;SDS011;36745;48.544;8.918;2022-11-15T20:05:31;28.10;;;21.45;;
50773;SDS011;36745;48.544;8.918;2022-11-15T20:08:53;41.35;;;29.83;;
50773;SDS011;36745;48.544;8.918;2022-11-15T20:12:14;41.78;;;29.88;;
50773;SDS011;36745;48.544;8.918;2022-11-15T20:15:35;41.85;;;29.77;;
50773;SDS011;36745;48.544;8.918;2022-11-15T20:18:57;39.97;;;29.48;;
50773;SDS011;36745;48.544;8.918;2022-11-15T20:22:18;51.63;;;32.53;;
50773;SDS011;36745;48.544;8.918;2022-11-15T20:25:42;42.45;;;30.35;;
50773;SDS011;36745;48.544;8.918;2022-11-15T20:29:05;42.30;;;32.22;;
50773;SDS011;36745;48.544;8.918;2022-11-15T20:32:29;53.60;;;40.83;;
50773;SDS011;36745;48.544;8.918;2022-11-15T20:35:51;48.67;;;34.15;;
50773;SDS011;36745;48.544;8.918;2022-11-15T20:39:12;30.35;;;22.52;;
50773;SDS011;36745;48.544;8.918;2022-11-15T20:42:33;35.78;;;26.40;;
50773;SDS011;36745;48.544;8.918;2022-11-15T20:45:55;27.95;;;21.00;;
50773;SDS011;36745;48.544;8.918;2022-11-15T20:49:16;32.70;;;24.50;;
50773;SDS011;36745;48.544;8.918;2022-11-15T20:52:37;33.17;;;22.83;;
50773;SDS011;36745;48.544;8.918;2022-11-15T20:56:02;29.70;;;22.23;;
50773;SDS011;36745;48.544;8.918;2022-11-15T20:59:25;27.45;;;21.33;;
50773;SDS011;36745;48.544;8.918;2022-11-15T21:02:47;36.17;;;22.80;;
50773;SDS011;36745;48.544;8.918;2022-11-15T21:06:09;27.85;;;21.63;;
50773;SDS011;36745;48.544;8.918;2022-11-15T21:09:30;26.27;;;20.20;;
50773;SDS011;36745;48.544;8.918;2022-11-15T21:13:11;29.38;;;20.95;;
50773;SDS011;36745;48.544;8.918;2022-11-15T21:16:32;35.00;;;22.35;;
50773;SDS011;36745;48.544;8.918;2022-11-15T21:19:53;29.65;;;22.23;;
50773;SDS011;36745;48.544;8.918;2022-11-15T21:23:15;32.40;;;22.25;;
50773;SDS011;36745;48.544;8.918;2022-11-15T21:26:36;27.15;;;21.08;;
50773;SDS011;36745;48.544;8.918;2022-11-15T21:30:00;29.58;;;21.90;;
50773;SDS011;36745;48.544;8.918;2022-11-15T21:33:22;30.55;;;20.95;;
50773;SDS011;36745;48.544;8.918;2022-11-15T21:36:47;32.13;;;21.90;;
50773;SDS011;36745;48.544;8.918;2022-11-15T21:40:08;31.38;;;20.85;;
50773;SDS011;36745;48.544;8.918;2022-11-15T21:43:30;30.05;;;20.75;;
50773;SDS011;36745;48.544;8.918;2022-11-15T21:46:52;28.67;;;20.88;;
50773;SDS011;36745;48.544;8.918;2022-11-15T21:50:13;34.65;;;22.73;;
50773;SDS011;36745;48.544;8.918;2022-11-15T21:53:37;30.52;;;21.55;;
50773;SDS011;36745;48.544;8.918;2022-11-15T21:57:02;32.85;;;22.13;;
50773;SDS011;36745;48.544;8.918;2022-11-15T22:04:42;31.23;;;21.50;;
50773;SDS011;36745;48.544;8.918;2022-11-15T22:08:03;26.48;;;20.40;;